createdAt,value
2023-06-10T00:00:14.309Z,16.69
2023-06-10T00:05:17.430Z,16.61
2023-06-10T00:10:19.165Z,16.48
2023-06-10T00:15:20.981Z,16.41
2023-06-10T00:20:26.182Z,16.27
2023-06-10T00:25:28.051Z,16.27
2023-06-10T00:30:30.097Z,16.29
2023-06-10T00:35:31.816Z,16.30
2023-06-10T00:40:42.051Z,16.23
2023-06-10T00:45:43.861Z,16.11
2023-06-10T00:50:47.888Z,15.99
2023-06-10T00:55:49.707Z,15.92
2023-06-10T01:00:51.864Z,15.85
2023-06-10T01:06:15.485Z,15.80
2023-06-10T01:11:31.088Z,15.70
2023-06-10T01:16:33.737Z,15.61
2023-06-10T01:21:36.585Z,15.55
2023-06-10T01:26:38.526Z,15.56
2023-06-10T01:31:50.405Z,15.58
2023-06-10T01:36:56.030Z,15.63
2023-06-10T01:41:58.351Z,15.68
2023-06-10T01:47:00.153Z,15.68
2023-06-10T01:52:03.133Z,15.60
2023-06-10T01:57:07.282Z,15.53
2023-06-10T02:02:09.003Z,15.43
2023-06-10T02:07:11.046Z,15.37
2023-06-10T02:12:12.809Z,15.41
2023-06-10T02:17:15.833Z,15.51
2023-06-10T02:22:17.524Z,15.53
2023-06-10T02:27:19.707Z,15.46
2023-06-10T02:32:21.523Z,15.41
2023-06-10T02:37:23.555Z,15.41
2023-06-10T02:42:25.348Z,15.39
2023-06-10T02:47:27.500Z,15.43
2023-06-10T02:52:29.884Z,15.48
2023-06-10T02:57:32.015Z,15.54
2023-06-10T03:02:37.989Z,15.57
2023-06-10T03:07:40.430Z,15.59
2023-06-10T03:12:42.562Z,15.61
2023-06-10T03:17:44.632Z,15.63
2023-06-10T03:22:46.996Z,15.73
2023-06-10T03:27:49.003Z,15.78
2023-06-10T03:32:51.038Z,15.83
2023-06-10T03:37:54.452Z,15.92
2023-06-10T03:42:56.380Z,15.97
2023-06-10T03:47:58.495Z,16.02
2023-06-10T03:53:04.764Z,16.14
2023-06-10T03:58:06.912Z,16.26
2023-06-10T04:03:10.693Z,16.33
2023-06-10T04:08:16.338Z,16.41
2023-06-10T04:13:18.597Z,16.50
2023-06-10T04:18:26.319Z,16.67
2023-06-10T04:23:30.278Z,16.82
2023-06-10T04:28:32.366Z,16.98
2023-06-10T04:33:34.324Z,17.09
2023-06-10T04:38:37.024Z,17.20
2023-06-10T04:43:39.751Z,17.26
2023-06-10T04:48:43.451Z,17.24
2023-06-10T04:53:46.189Z,17.23
2023-06-10T04:58:47.963Z,17.36
2023-06-10T05:03:49.945Z,17.61
2023-06-10T05:08:51.804Z,17.89
2023-06-10T05:13:53.518Z,18.08
2023-06-10T05:18:55.228Z,18.14
2023-06-10T05:23:57.185Z,18.20
2023-06-10T05:28:59.715Z,18.30
2023-06-10T05:34:01.395Z,18.41
2023-06-10T05:39:04.061Z,18.55
2023-06-10T05:44:05.827Z,18.58
2023-06-10T05:49:07.614Z,18.54
2023-06-10T05:54:09.309Z,18.66
2023-06-10T05:59:11.030Z,18.98
2023-06-10T06:04:12.866Z,19.51
2023-06-10T06:09:14.912Z,19.79
2023-06-10T06:14:24.639Z,19.92
2023-06-10T06:19:26.482Z,19.76
2023-06-10T06:24:28.640Z,19.81
2023-06-10T06:29:31.246Z,19.84
2023-06-10T06:34:34.624Z,19.85
2023-06-10T06:39:36.334Z,19.62
2023-06-10T06:44:38.070Z,19.61
2023-06-10T06:49:39.813Z,19.74
2023-06-10T06:54:41.608Z,19.81
2023-06-10T06:59:43.303Z,19.70
2023-06-10T07:04:45.271Z,19.57
2023-06-10T07:09:51.755Z,19.51
2023-06-10T07:14:53.550Z,19.43
2023-06-10T07:19:58.506Z,19.38
2023-06-10T07:25:00.266Z,19.44
2023-06-10T07:30:02.661Z,19.45
2023-06-10T07:35:07.024Z,19.54
2023-06-10T07:40:09.766Z,19.57
2023-06-10T07:45:11.971Z,19.75
2023-06-10T07:50:13.938Z,20.16
2023-06-10T07:55:15.696Z,20.37
2023-06-10T08:00:18.118Z,20.40
2023-06-10T08:05:20.251Z,20.40
2023-06-10T08:10:22.087Z,20.33
2023-06-10T08:15:23.829Z,20.30
2023-06-10T08:20:26.021Z,20.38
2023-06-10T08:25:28.596Z,20.47
2023-06-10T08:30:30.295Z,20.57
2023-06-10T08:35:32.052Z,20.81
2023-06-10T08:40:34.430Z,21.10
2023-06-10T08:45:37.969Z,21.47
2023-06-10T08:50:40.759Z,21.68
2023-06-10T08:55:51.021Z,21.89
2023-06-10T09:00:53.728Z,22.12
2023-06-10T09:05:58.147Z,22.29
2023-06-10T09:11:00.021Z,22.32
2023-06-10T09:16:03.249Z,22.41
2023-06-10T09:21:05.491Z,22.68
2023-06-10T09:26:11.708Z,23.14
2023-06-10T09:31:13.556Z,23.29
2023-06-10T09:36:24.900Z,23.43
2023-06-10T09:41:40.348Z,23.95
2023-06-10T09:46:43.212Z,24.28
2023-06-10T09:51:56.148Z,24.63
2023-06-10T09:56:59.871Z,24.74
2023-06-10T10:02:02.094Z,24.75
2023-06-10T10:07:03.988Z,24.83
2023-06-10T10:12:12.341Z,24.85
2023-06-10T10:17:16.118Z,24.75
2023-06-10T10:22:38.423Z,24.63
2023-06-10T10:27:49.500Z,24.62
2023-06-10T10:33:13.646Z,24.43
2023-06-10T10:38:16.196Z,24.31
2023-06-10T10:43:19.200Z,24.14
2023-06-10T10:48:21.048Z,24.21
2023-06-10T10:53:22.962Z,24.24
2023-06-10T10:58:27.774Z,23.97
2023-06-10T11:03:31.970Z,23.80
2023-06-10T11:08:33.929Z,23.60
2023-06-10T11:13:39.680Z,23.47
2023-06-10T11:18:42.650Z,23.34
2023-06-10T11:23:45.183Z,23.31
2023-06-10T11:28:47.423Z,23.28
2023-06-10T11:33:54.604Z,23.31
2023-06-10T11:39:05.418Z,23.34
2023-06-10T11:44:18.307Z,23.33
2023-06-10T11:49:21.747Z,23.35
2023-06-10T11:54:23.481Z,23.45
2023-06-10T11:59:28.880Z,23.86
2023-06-10T12:04:30.743Z,23.96
2023-06-10T12:09:34.200Z,23.95
2023-06-10T12:14:56.063Z,24.13
2023-06-10T12:19:58.621Z,24.24
2023-06-10T12:25:05.785Z,24.45
2023-06-10T12:30:08.130Z,24.57
2023-06-10T12:35:12.425Z,24.65
2023-06-10T12:40:14.494Z,24.73
2023-06-10T12:45:27.497Z,25.04
2023-06-10T12:50:29.473Z,25.21
2023-06-10T12:55:31.376Z,25.18
2023-06-10T13:00:33.311Z,25.17
2023-06-10T13:05:38.321Z,25.27
2023-06-10T13:10:40.142Z,25.31
2023-06-10T13:15:44.027Z,25.53
2023-06-10T13:20:56.044Z,25.96
2023-06-10T13:26:30.502Z,26.23
2023-06-10T13:31:33.758Z,26.33
2023-06-10T13:36:36.054Z,26.31
2023-06-10T13:41:37.766Z,26.32
2023-06-10T13:46:39.533Z,26.31
2023-06-10T13:51:41.483Z,26.29
2023-06-10T13:56:43.242Z,26.28
2023-06-10T14:01:45.040Z,26.07
2023-06-10T14:06:46.914Z,25.79
2023-06-10T14:11:48.752Z,25.67
2023-06-10T14:16:51.014Z,25.74
2023-06-10T14:21:54.874Z,25.79
2023-06-10T14:26:58.192Z,25.87
2023-06-10T14:32:00.703Z,25.66
2023-06-10T14:37:05.286Z,24.99
2023-06-10T14:42:08.004Z,23.82
2023-06-10T14:47:09.686Z,22.66
2023-06-10T14:52:11.483Z,21.72
2023-06-10T14:57:13.169Z,21.15
2023-06-10T15:02:14.969Z,20.87
2023-06-10T15:07:16.735Z,20.73
2023-06-10T15:12:18.431Z,20.63
2023-06-10T15:17:20.094Z,20.56
2023-06-10T15:22:22.299Z,20.46
2023-06-10T15:27:24.097Z,20.38
2023-06-10T15:32:25.809Z,20.34
2023-06-10T15:37:27.571Z,20.39
2023-06-10T15:42:29.390Z,20.44
2023-06-10T15:47:31.405Z,20.50
2023-06-10T15:52:33.488Z,20.56
2023-06-10T15:57:35.354Z,20.66
2023-06-10T16:02:37.651Z,20.73
2023-06-10T16:07:41.378Z,20.80
2023-06-10T16:12:43.157Z,20.73
2023-06-10T16:17:45.065Z,20.96
2023-06-10T16:22:46.862Z,21.07
2023-06-10T16:27:48.623Z,21.20
2023-06-10T16:32:50.539Z,21.31
2023-06-10T16:37:52.766Z,21.42
2023-06-10T16:42:54.448Z,21.54
2023-06-10T16:47:57.156Z,21.63
2023-06-10T16:52:59.365Z,21.62
2023-06-10T16:58:01.066Z,21.56
2023-06-10T17:03:02.887Z,21.49
2023-06-10T17:08:04.964Z,21.42
2023-06-10T17:13:06.780Z,21.35
2023-06-10T17:18:08.730Z,21.25
2023-06-10T17:23:11.223Z,21.17
2023-06-10T17:28:13.248Z,21.09
2023-06-10T17:33:15.052Z,21.04
2023-06-10T17:38:17.877Z,20.98
2023-06-10T17:43:21.563Z,20.91
2023-06-10T17:48:23.293Z,20.80
2023-06-10T17:53:25.004Z,20.75
2023-06-10T17:58:26.756Z,20.72
2023-06-10T18:03:28.913Z,20.73
2023-06-10T18:08:31.058Z,20.75
2023-06-10T18:13:33.643Z,20.74
2023-06-10T18:18:35.384Z,20.67
2023-06-10T18:23:37.222Z,20.58
2023-06-10T18:28:39.117Z,20.46
2023-06-10T18:33:40.989Z,20.35
2023-06-10T18:38:42.761Z,20.23
2023-06-10T18:43:44.482Z,20.06
2023-06-10T18:48:48.727Z,19.90
2023-06-10T18:53:50.695Z,19.76
2023-06-10T18:58:52.383Z,19.62
2023-06-10T19:03:54.233Z,19.46
2023-06-10T19:08:56.347Z,19.30
2023-06-10T19:13:58.106Z,19.13
2023-06-10T19:18:59.869Z,18.98
2023-06-10T19:24:01.716Z,18.83
2023-06-10T19:29:03.498Z,18.72
2023-06-10T19:34:05.296Z,18.59
2023-06-10T19:39:07.754Z,18.45
2023-06-10T19:44:09.503Z,18.32
2023-06-10T19:49:11.331Z,18.15
2023-06-10T19:54:13.249Z,17.98
2023-06-10T19:59:14.975Z,17.83
2023-06-10T20:04:16.916Z,17.71
2023-06-10T20:09:18.758Z,17.59
2023-06-10T20:14:21.972Z,17.49
2023-06-10T20:19:23.708Z,17.37
2023-06-10T20:24:25.646Z,17.22
2023-06-10T20:29:27.616Z,17.09
2023-06-10T20:34:29.329Z,16.99
2023-06-10T20:39:31.188Z,16.89
2023-06-10T20:44:32.872Z,16.77
2023-06-10T20:49:34.607Z,16.68
2023-06-10T20:54:36.496Z,16.58
2023-06-10T20:59:38.257Z,16.54
2023-06-10T21:04:39.954Z,16.45
2023-06-10T21:09:41.784Z,16.32
2023-06-10T21:14:49.526Z,16.22
2023-06-10T21:19:51.629Z,16.15
2023-06-10T21:24:53.504Z,16.09
2023-06-10T21:29:55.230Z,16.01
2023-06-10T21:34:57.498Z,15.92
2023-06-10T21:39:59.384Z,15.84
2023-06-10T21:45:01.089Z,15.78
2023-06-10T21:50:04.353Z,15.72
2023-06-10T21:55:09.388Z,15.61
2023-06-10T22:00:15.061Z,15.53
2023-06-10T22:05:32.864Z,15.45
2023-06-10T22:10:34.669Z,15.35
2023-06-10T22:15:37.143Z,15.22
2023-06-10T22:20:38.864Z,15.07
2023-06-10T22:25:41.311Z,14.91
2023-06-10T22:30:43.237Z,14.77
2023-06-10T22:35:45.900Z,14.66
2023-06-10T22:40:47.586Z,14.56
2023-06-10T22:45:49.474Z,14.48
2023-06-10T22:50:51.329Z,14.39
2023-06-10T22:55:53.021Z,14.32
2023-06-10T23:00:54.802Z,14.26
2023-06-10T23:05:56.525Z,14.20
2023-06-10T23:10:58.215Z,14.15
2023-06-10T23:16:03.950Z,14.10
2023-06-10T23:21:06.090Z,14.08
2023-06-10T23:26:07.788Z,14.02
2023-06-10T23:31:09.469Z,13.98
2023-06-10T23:36:14.024Z,13.94
2023-06-10T23:41:15.799Z,13.91
2023-06-10T23:46:18.534Z,13.86
2023-06-10T23:51:21.190Z,13.81
2023-06-10T23:56:24.640Z,13.80
